Zhenjiang, China
Current Conditions -  °F | °C
As of 10:00 AM on Monday 26 Jan 2015 (Local Time) from ZSNJ Reporting Station
Haze Haze  
Wind Chill: 45°   Ceiling: 700
Heat Index: 45°   Visibility: 0.62mi
Dew Point: 41°   Wind: 2mph
Humidity: 87%   Direction: NA
Pressure: 30.27"   Gusts: NA
Location:  32.22°N, 119.43°E
Report Text: ZSNJ 260200Z VRB01MPS 1000 R24/1300N R25/1300N BRBKN007OVC040 07/05 Q1025 NOSIG
Loading
Personal Weather Stations






























Interactive Weather Map New forecast layout! Learn more

10-Day Weather Forecast

Advertisements
Track Severe Weather on mobile